Time;durP1;ratioP1;P1;durP2;ratioP2;P2;SDS_P1;SDS_P2;PMS_P1;PMS_P2;Temp;Humidity;BMP_temperature;BMP_pressure;BME280_temperature;BME280_humidity;BME280_pressure;Samples;Min_cycle;Max_cycle;Signal;HPM_P1;HPM_P2
2022/03/04 00:02:05;;;;;;;21.40;14.10;;;;;;;5.37;47.36;101844.78;5282526;28;20054;-74
2022/03/04 00:04:37;;;;;;;19.97;13.63;;;;;;;5.29;47.79;101853.59;5290459;28;20019;-74
2022/03/04 00:07:08;;;;;;;22.70;14.30;;;;;;;5.30;47.32;101859.66;5289582;28;20020;-74
2022/03/04 00:09:40;;;;;;;21.73;13.87;;;;;;;5.23;47.66;101838.16;5290686;28;20078;-75
2022/03/04 00:12:11;;;;;;;20.77;13.60;;;;;;;5.26;48.03;101851.06;5272208;28;20020;-75
2022/03/04 00:14:42;;;;;;;20.47;14.40;;;;;;;5.27;48.32;101860.56;5294165;28;20035;-75
2022/03/04 00:17:13;;;;;;;22.70;14.07;;;;;;;5.08;48.00;101844.50;5292478;28;20034;-75
2022/03/04 00:19:45;;;;;;;21.77;13.77;;;;;;;5.27;48.37;101857.97;5294074;28;20112;-74
2022/03/04 00:22:16;;;;;;;22.60;15.10;;;;;;;5.03;48.49;101864.53;5293289;28;20032;-74
2022/03/04 00:24:48;;;;;;;19.87;13.53;;;;;;;4.96;48.65;101868.97;5294384;28;20111;-75
2022/03/04 00:27:19;;;;;;;26.70;16.53;;;;;;;5.07;48.58;101866.19;5293387;28;20073;-75
2022/03/04 00:29:50;;;;;;;19.90;14.37;;;;;;;5.10;48.44;101867.88;5294003;28;20428;-75
2022/03/04 00:32:21;;;;;;;19.77;14.20;;;;;;;4.94;48.83;101857.78;5291743;28;20032;-75
2022/03/04 00:34:53;;;;;;;21.07;15.07;;;;;;;4.90;49.33;101864.78;5286485;28;20035;-76
2022/03/04 00:37:25;;;;;;;23.43;16.03;;;;;;;4.97;49.17;101868.13;5272142;28;20115;-75
2022/03/04 00:39:56;;;;;;;22.30;15.23;;;;;;;4.98;48.99;101862.03;5270414;28;20052;-75
2022/03/04 00:42:27;;;;;;;21.37;14.30;;;;;;;5.08;48.66;101875.66;5271844;28;20025;-73
2022/03/04 00:44:59;;;;;;;22.03;14.43;;;;;;;4.93;49.04;101867.31;5271759;28;20031;-76
2022/03/04 00:47:30;;;;;;;24.03;14.67;;;;;;;5.01;48.83;101877.53;5271599;28;20032;-76
2022/03/04 00:50:03;;;;;;;25.13;14.77;;;;;;;4.91;49.29;101879.47;5270832;28;20082;-75
2022/03/04 00:52:34;;;;;;;22.80;15.40;;;;;;;4.87;49.56;101872.59;5286639;28;20505;-76
2022/03/04 00:55:06;;;;;;;27.23;14.50;;;;;;;4.88;49.42;101876.94;5293002;28;20036;-75
2022/03/04 00:57:37;;;;;;;26.27;15.03;;;;;;;4.79;49.46;101870.16;5293194;28;20024;-75
2022/03/04 01:00:09;;;;;;;22.43;14.73;;;;;;;4.90;49.56;101877.75;5293028;28;20107;-75
2022/03/04 01:02:40;;;;;;;22.63;15.27;;;;;;;4.84;49.91;101878.72;5292093;28;20028;-75
2022/03/04 01:05:11;;;;;;;21.83;14.73;;;;;;;4.87;49.45;101882.16;5292623;28;20541;-75
2022/03/04 01:07:44;;;;;;;26.00;15.23;;;;;;;4.83;50.19;101884.78;5292984;28;20050;-75
2022/03/04 01:10:16;;;;;;;22.63;14.60;;;;;;;4.76;49.53;101875.44;5292846;28;20036;-75
2022/03/04 01:12:47;;;;;;;22.77;14.43;;;;;;;4.82;49.37;101884.81;5291440;28;20024;-76
2022/03/04 01:15:19;;;;;;;23.63;15.73;;;;;;;4.82;49.50;101880.50;5294614;28;20031;-75
2022/03/04 01:17:50;;;;;;;22.10;14.70;;;;;;;4.79;49.74;101885.75;5294680;28;20091;-75
2022/03/04 01:20:22;;;;;;;24.63;14.60;;;;;;;4.67;50.75;101875.59;5292292;28;20032;-75
2022/03/04 01:22:54;;;;;;;23.80;15.00;;;;;;;4.60;50.59;101877.44;5292469;28;20031;-75
2022/03/04 01:25:26;;;;;;;23.37;14.70;;;;;;;4.79;50.26;101869.31;5292411;28;20024;-75
2022/03/04 01:27:57;;;;;;;21.97;14.67;;;;;;;4.96;49.47;101876.75;5291376;28;20475;-75
2022/03/04 01:30:28;;;;;;;22.17;15.33;;;;;;;4.74;50.39;101879.78;5291355;28;20024;-75
2022/03/04 01:33:00;;;;;;;24.63;15.00;;;;;;;4.63;50.43;101873.91;5291571;28;20028;-75
2022/03/04 01:35:31;;;;;;;22.63;14.83;;;;;;;4.69;51.01;101869.50;5278935;28;20024;-75
2022/03/04 01:38:03;;;;;;;23.43;14.77;;;;;;;4.78;50.25;101878.00;5276147;28;20051;-75
2022/03/04 01:40:34;;;;;;;27.87;16.50;;;;;;;4.47;51.17;101874.19;5293107;28;20467;-75
2022/03/04 01:43:06;;;;;;;20.77;15.30;;;;;;;4.76;49.73;101869.38;5292044;28;20020;-75
2022/03/04 01:45:37;;;;;;;22.87;15.63;;;;;;;4.29;50.90;101858.09;5292977;28;20388;-75
2022/03/04 01:48:08;;;;;;;20.93;14.80;;;;;;;4.69;50.56;101863.44;5292350;28;20649;-75
2022/03/04 01:50:40;;;;;;;21.47;15.07;;;;;;;4.38;51.11;101866.59;5296570;28;20032;-75
2022/03/04 01:53:11;;;;;;;27.70;15.10;;;;;;;4.42;51.55;101866.50;5296308;28;20458;-76
2022/03/04 01:55:43;;;;;;;21.13;14.53;;;;;;;4.48;51.08;101871.59;5296971;28;20095;-76
2022/03/04 01:58:14;;;;;;;20.13;14.33;;;;;;;4.48;50.86;101862.94;5296083;28;20032;-75
2022/03/04 02:00:45;;;;;;;26.60;16.03;;;;;;;4.23;51.12;101861.63;5299352;28;20092;-77
2022/03/04 02:03:17;;;;;;;22.37;15.63;;;;;;;4.20;51.85;101873.78;5297165;28;20028;-78
2022/03/04 02:05:48;;;;;;;22.50;15.53;;;;;;;3.98;52.04;101871.53;5294461;28;20047;-77
2022/03/04 02:08:19;;;;;;;22.00;16.30;;;;;;;3.87;52.48;101880.31;5294981;28;20032;-74
2022/03/04 02:10:51;;;;;;;22.87;16.03;;;;;;;3.74;52.54;101878.78;5294724;28;20075;-76
2022/03/04 02:13:22;;;;;;;23.90;16.50;;;;;;;3.75;52.62;101872.75;5296199;28;20070;-75
2022/03/04 02:15:53;;;;;;;23.87;15.83;;;;;;;3.92;52.24;101882.00;5296033;28;20418;-75
2022/03/04 02:18:25;;;;;;;22.40;15.40;;;;;;;3.75;52.53;101871.00;5295243;28;20491;-75
2022/03/04 02:21:00;;;;;;;24.10;16.50;;;;;;;3.78;52.55;101870.09;5295879;28;20501;-76
2022/03/04 02:23:32;;;;;;;25.03;16.60;;;;;;;3.85;52.37;101869.13;5296391;28;20032;-75
2022/03/04 02:26:04;;;;;;;22.93;16.20;;;;;;;3.75;52.28;101876.16;5294141;28;20077;-75
2022/03/04 02:28:35;;;;;;;22.57;16.27;;;;;;;3.75;52.44;101863.22;5296445;28;20390;-75
2022/03/04 02:31:07;;;;;;;24.87;16.70;;;;;;;3.77;52.45;101873.56;5295250;28;20675;-75
2022/03/04 02:33:38;;;;;;;26.27;17.27;;;;;;;3.73;52.27;101864.13;5294163;28;20027;-75
2022/03/04 02:36:09;;;;;;;26.17;17.57;;;;;;;3.69;52.35;101862.44;5278311;28;20059;-74
2022/03/04 02:38:41;;;;;;;23.97;17.23;;;;;;;3.70;53.14;101861.59;5274648;28;20028;-74
2022/03/04 02:41:13;;;;;;;49.10;19.27;;;;;;;3.63;53.01;101851.31;5274914;28;20032;-74
2022/03/04 02:43:44;;;;;;;27.20;17.10;;;;;;;3.78;52.28;101853.69;5274167;28;20032;-75
2022/03/04 02:46:15;;;;;;;29.80;18.20;;;;;;;3.70;53.52;101843.44;5274187;28;20036;-74
2022/03/04 02:48:46;;;;;;;25.40;17.03;;;;;;;3.49;53.14;101859.25;5274271;28;20028;-75
2022/03/04 02:51:18;;;;;;;22.87;17.13;;;;;;;3.55;53.06;101853.16;5273484;28;20047;-75
2022/03/04 02:53:49;;;;;;;27.23;17.50;;;;;;;3.50;53.37;101860.13;5273093;28;20372;-75
2022/03/04 02:56:20;;;;;;;23.83;17.13;;;;;;;3.42;53.27;101841.25;5274081;28;20387;-74
2022/03/04 02:58:52;;;;;;;24.40;17.63;;;;;;;3.33;54.15;101848.28;5274462;28;20749;-75
2022/03/04 03:01:25;;;;;;;27.47;17.73;;;;;;;3.38;53.80;101851.66;5273037;28;20078;-74
2022/03/04 03:03:56;;;;;;;23.97;17.27;;;;;;;3.07;53.61;101838.25;5274280;28;20024;-74
2022/03/04 03:06:28;;;;;;;26.30;17.37;;;;;;;3.24;53.64;101856.16;5273278;28;20723;-74
2022/03/04 03:08:59;;;;;;;22.90;17.53;;;;;;;3.21;54.46;101858.78;5278048;28;20078;-74
2022/03/04 03:11:30;;;;;;;25.67;17.77;;;;;;;3.09;54.03;101860.63;5273887;28;20028;-74
2022/03/04 03:14:01;;;;;;;26.33;17.23;;;;;;;3.21;53.87;101858.78;5273841;28;20071;-74
2022/03/04 03:16:33;;;;;;;26.73;17.77;;;;;;;3.14;54.08;101852.81;5272925;28;20016;-74
2022/03/04 03:19:04;;;;;;;23.30;16.57;;;;;;;3.06;54.20;101845.13;5274725;28;20456;-75
2022/03/04 03:21:35;;;;;;;32.73;17.57;;;;;;;3.01;54.03;101831.41;5273990;28;20152;-74
2022/03/04 03:24:07;;;;;;;27.40;17.10;;;;;;;3.05;54.38;101833.09;5272153;28;20024;-75
2022/03/04 03:26:38;;;;;;;27.17;17.17;;;;;;;3.10;54.32;101846.81;5273997;28;20025;-74
2022/03/04 03:29:09;;;;;;;25.60;18.23;;;;;;;3.04;54.67;101848.63;5272213;28;20514;-75
2022/03/04 03:31:41;;;;;;;26.37;16.90;;;;;;;2.99;54.51;101851.25;5272685;28;20098;-74
2022/03/04 03:34:12;;;;;;;31.77;20.37;;;;;;;2.98;54.56;101852.13;5271964;28;20024;-74
2022/03/04 03:36:43;;;;;;;25.77;17.87;;;;;;;2.95;54.76;101859.94;5273963;28;20082;-74
2022/03/04 03:39:14;;;;;;;24.70;17.73;;;;;;;2.93;54.57;101864.28;5271762;28;20078;-74
2022/03/04 03:41:46;;;;;;;23.97;18.07;;;;;;;2.92;55.00;101867.72;5272291;28;20523;-74
2022/03/04 03:44:17;;;;;;;26.40;18.43;;;;;;;2.89;54.86;101863.44;5273834;28;20452;-74
2022/03/04 03:46:48;;;;;;;29.03;18.27;;;;;;;2.80;55.26;101864.41;5271904;28;20078;-74
2022/03/04 03:49:20;;;;;;;28.20;18.60;;;;;;;2.87;55.00;101865.19;5273792;28;20387;-74
2022/03/04 03:51:51;;;;;;;24.17;18.67;;;;;;;2.92;54.79;101859.97;5271529;28;20024;-74
2022/03/04 03:54:22;;;;;;;26.43;18.40;;;;;;;2.80;55.21;101851.47;5273533;28;20032;-74
2022/03/04 03:56:54;;;;;;;27.93;17.87;;;;;;;2.82;55.33;101860.06;5272794;28;20032;-74
2022/03/04 03:59:25;;;;;;;29.50;19.20;;;;;;;2.83;55.29;101854.00;5273242;28;20681;-73
2022/03/04 04:01:58;;;;;;;29.03;19.10;;;;;;;2.68;55.45;101859.34;5271766;28;20456;-74
2022/03/04 04:04:36;;;;;;;26.33;18.00;;;;;;;2.63;55.64;101868.03;5272932;28;20112;-74
2022/03/04 04:07:10;;;;;;;29.73;17.93;;;;;;;2.70;55.80;101876.59;5272430;28;20839;-74
2022/03/04 04:09:42;;;;;;;27.98;18.35;;;;;;;2.68;55.75;101880.03;5273387;28;20376;-74
2022/03/04 04:12:13;;;;;;;26.30;18.03;;;;;;;2.67;55.49;101868.88;5272235;28;20020;-75
2022/03/04 04:14:44;;;;;;;30.23;18.97;;;;;;;2.59;55.35;101850.81;5272022;28;20025;-74
2022/03/04 04:17:16;;;;;;;29.07;18.67;;;;;;;2.61;55.76;101880.13;5271756;28;20024;-74
2022/03/04 04:19:48;;;;;;;26.13;17.87;;;;;;;2.61;55.71;101877.53;5272616;28;20375;-74
2022/03/04 04:22:20;;;;;;;28.97;18.90;;;;;;;2.54;56.00;101883.63;5273395;28;20028;-74
2022/03/04 04:24:51;;;;;;;26.07;18.20;;;;;;;2.52;56.43;101885.38;5272319;28;20467;-74
2022/03/04 04:27:23;;;;;;;28.23;19.17;;;;;;;2.52;56.19;101885.38;5272817;28;20317;-74
2022/03/04 04:29:54;;;;;;;28.43;18.80;;;;;;;2.49;56.08;101883.69;5272021;28;20029;-74
2022/03/04 04:32:25;;;;;;;30.70;18.73;;;;;;;2.45;56.46;101883.69;5271833;28;20078;-74
2022/03/04 04:34:56;;;;;;;27.90;18.47;;;;;;;2.42;56.74;101877.72;5270791;28;20028;-74
2022/03/04 04:37:28;;;;;;;29.53;18.37;;;;;;;2.40;56.52;101881.16;5272341;28;20047;-74
2022/03/04 04:39:59;;;;;;;28.27;18.63;;;;;;;2.26;56.77;101883.88;5272248;28;20481;-77
2022/03/04 04:42:31;;;;;;;30.57;20.40;;;;;;;2.33;56.64;101889.84;5271996;28;20453;-77
2022/03/04 04:45:03;;;;;;;32.57;20.23;;;;;;;2.27;57.02;101893.34;5272140;28;20063;-74
2022/03/04 04:47:34;;;;;;;29.13;19.60;;;;;;;2.28;57.11;101895.06;5271314;28;20070;-74
2022/03/04 04:50:06;;;;;;;28.73;18.63;;;;;;;2.31;57.00;101900.19;5272238;28;20131;-74
2022/03/04 04:52:37;;;;;;;25.27;17.43;;;;;;;2.37;56.41;101899.28;5271632;28;20028;-74
2022/03/04 04:55:09;;;;;;;26.70;19.13;;;;;;;2.35;56.90;101898.44;5272232;28;20032;-74
2022/03/04 04:57:40;;;;;;;27.07;18.30;;;;;;;2.32;56.88;101889.00;5271680;28;20036;-77
2022/03/04 05:00:12;;;;;;;32.50;20.37;;;;;;;2.15;57.24;101879.63;5272348;28;20027;-76
2022/03/04 05:02:44;;;;;;;29.77;18.83;;;;;;;2.27;57.13;101893.34;5269156;28;20059;-74
2022/03/04 05:05:15;;;;;;;30.60;19.37;;;;;;;2.30;57.08;101894.16;5272080;28;20043;-74
2022/03/04 05:07:47;;;;;;;30.07;21.10;;;;;;;2.16;57.50;101878.75;5270444;28;20275;-76
2022/03/04 05:10:18;;;;;;;29.73;19.30;;;;;;;2.23;57.16;101886.47;5271865;28;20094;-77
2022/03/04 05:12:49;;;;;;;27.70;19.30;;;;;;;2.22;57.69;101888.19;5275855;28;20631;-74
2022/03/04 05:15:21;;;;;;;28.47;19.27;;;;;;;2.23;57.28;101878.72;5271975;28;20056;-76
2022/03/04 05:17:52;;;;;;;27.37;20.03;;;;;;;2.08;57.97;101875.38;5269558;28;20036;-74
2022/03/04 05:20:23;;;;;;;31.70;21.90;;;;;;;2.11;57.68;101882.25;5271641;28;20082;-74
2022/03/04 05:22:55;;;;;;;28.90;20.30;;;;;;;2.20;57.82;101882.19;5271964;28;20111;-74
2022/03/04 05:25:26;;;;;;;30.87;20.47;;;;;;;2.06;57.89;101877.09;5271342;28;20125;-74
2022/03/04 05:27:57;;;;;;;30.83;19.37;;;;;;;2.23;57.53;101889.94;5271238;28;20032;-74
2022/03/04 05:30:29;;;;;;;31.17;20.20;;;;;;;2.12;58.02;101881.38;5271090;28;20063;-75
2022/03/04 05:33:00;;;;;;;28.90;18.87;;;;;;;2.12;58.17;101887.41;5271255;28;20033;-74
2022/03/04 05:35:31;;;;;;;28.30;18.27;;;;;;;2.16;57.71;101886.50;5271696;28;20117;-74
2022/03/04 05:38:03;;;;;;;28.53;19.83;;;;;;;2.14;57.67;101884.81;5271581;28;20033;-74
2022/03/04 05:40:34;;;;;;;30.87;20.87;;;;;;;2.08;58.34;101890.88;5274052;28;20089;-74
2022/03/04 05:43:05;;;;;;;28.97;20.00;;;;;;;2.01;58.16;101892.66;5273333;28;20020;-74
2022/03/04 05:45:36;;;;;;;30.57;19.90;;;;;;;2.06;57.93;101897.78;5269424;28;20033;-74
2022/03/04 05:48:08;;;;;;;26.93;18.77;;;;;;;2.04;57.96;101890.03;5271496;28;20032;-74
2022/03/04 05:50:39;;;;;;;31.77;20.27;;;;;;;2.10;58.10;101904.66;5270355;28;20020;-74
2022/03/04 05:53:10;;;;;;;29.10;19.33;;;;;;;2.09;58.72;101913.28;5271586;28;20025;-74
2022/03/04 05:55:41;;;;;;;26.13;18.13;;;;;;;2.08;58.11;101915.88;5270949;28;20032;-74
2022/03/04 05:58:13;;;;;;;30.40;19.73;;;;;;;2.14;58.25;101921.00;5271879;28;20107;-74
2022/03/04 06:00:44;;;;;;;27.47;19.70;;;;;;;2.06;58.63;101923.63;5270293;28;20052;-74
2022/03/04 06:03:15;;;;;;;32.73;19.53;;;;;;;1.99;58.35;101914.22;5271553;28;20025;-74
2022/03/04 06:05:47;;;;;;;29.27;20.30;;;;;;;2.01;58.27;101917.63;5269444;28;20051;-74
2022/03/04 06:08:18;;;;;;;29.27;20.63;;;;;;;2.13;58.37;101925.31;5271697;28;20047;-74
2022/03/04 06:10:50;;;;;;;31.03;19.87;;;;;;;2.16;57.99;101927.03;5271017;28;20145;-74
2022/03/04 06:13:21;;;;;;;31.87;20.90;;;;;;;2.04;58.32;101930.56;5271257;28;20106;-74
2022/03/04 06:15:52;;;;;;;29.53;19.70;;;;;;;2.00;58.19;101934.88;5270612;28;20421;-74
2022/03/04 06:18:24;;;;;;;29.33;21.30;;;;;;;1.96;58.22;101919.38;5270935;28;20024;-74
2022/03/04 06:20:55;;;;;;;32.60;21.10;;;;;;;2.01;58.60;101930.56;5270261;28;20021;-74
2022/03/04 06:23:26;;;;;;;31.00;19.93;;;;;;;1.97;58.69;101934.03;5271091;28;20055;-74
2022/03/04 06:25:58;;;;;;;32.80;20.77;;;;;;;2.02;58.41;101942.63;5270647;28;20020;-74
2022/03/04 06:28:29;;;;;;;34.50;20.27;;;;;;;1.88;59.28;101933.22;5271100;28;20089;-75
2022/03/04 06:31:00;;;;;;;31.80;21.13;;;;;;;1.98;59.07;101938.31;5276005;28;20111;-74
2022/03/04 06:33:32;;;;;;;32.57;20.37;;;;;;;1.91;58.84;101942.69;5291736;28;20077;-75
2022/03/04 06:36:12;;;;;;;35.40;21.90;;;;;;;1.93;59.08;101939.22;5282804;28;20643;-74
2022/03/04 06:38:45;;;;;;;34.10;19.63;;;;;;;1.97;58.92;101934.91;5294947;28;20016;-75
2022/03/04 06:41:17;;;;;;;32.97;21.53;;;;;;;1.85;59.71;101947.88;5294931;28;21037;-75
2022/03/04 06:43:48;;;;;;;35.27;21.73;;;;;;;1.84;59.97;101943.56;5298398;28;20394;-75
2022/03/04 06:46:20;;;;;;;32.37;20.57;;;;;;;1.82;59.63;101946.16;5291870;28;20108;-74
2022/03/04 06:48:51;;;;;;;31.97;20.93;;;;;;;1.97;59.22;101949.53;5294810;28;20020;-77
2022/03/04 06:51:22;;;;;;;36.23;21.10;;;;;;;1.96;59.53;101950.38;5295065;28;20028;-77
2022/03/04 06:53:53;;;;;;;35.07;22.23;;;;;;;1.91;59.59;101953.88;5295903;28;20028;-77
2022/03/04 06:56:25;;;;;;;33.67;22.33;;;;;;;2.03;59.18;101950.34;5295165;28;20115;-77
2022/03/04 06:58:56;;;;;;;36.20;21.67;;;;;;;2.00;59.03;101959.84;5296048;28;20091;-78
2022/03/04 07:01:28;;;;;;;37.43;21.67;;;;;;;2.12;59.63;101972.72;5292812;28;20036;-73
2022/03/04 07:03:59;;;;;;;35.50;21.53;;;;;;;1.93;59.40;101952.16;5294703;28;20471;-74
2022/03/04 07:06:30;;;;;;;33.03;21.77;;;;;;;2.01;59.55;101977.06;5274830;28;20111;-73
2022/03/04 07:09:02;;;;;;;37.13;21.17;;;;;;;2.10;59.56;101982.19;5273473;28;20549;-69
2022/03/04 07:11:33;;;;;;;38.73;22.47;;;;;;;2.08;59.39;101989.09;5273877;28;20411;-74
2022/03/04 07:14:04;;;;;;;36.43;21.50;;;;;;;2.06;59.41;101983.06;5271480;28;20035;-73
2022/03/04 07:16:35;;;;;;;33.47;21.73;;;;;;;2.16;59.23;101992.47;5275126;28;20024;-74
2022/03/04 07:19:07;;;;;;;35.63;21.60;;;;;;;2.22;59.38;101999.34;5274289;28;20029;-79
2022/03/04 07:21:38;;;;;;;37.87;22.60;;;;;;;2.28;58.84;102003.63;5274089;28;20036;-80
2022/03/04 07:24:09;;;;;;;34.87;22.93;;;;;;;2.30;58.81;102000.16;5271948;28;20040;-79
2022/03/04 07:26:41;;;;;;;36.43;21.27;;;;;;;2.36;59.11;102001.84;5269962;28;20021;-81
2022/03/04 07:29:12;;;;;;;36.13;20.63;;;;;;;2.46;58.79;101996.63;5272861;28;20055;-79
2022/03/04 07:31:44;;;;;;;35.17;21.07;;;;;;;2.56;58.84;102000.88;5267559;28;20032;-75
2022/03/04 07:34:15;;;;;;;36.77;22.53;;;;;;;2.64;58.48;102000.78;5260556;28;20451;-77
2022/03/04 07:36:46;;;;;;;35.37;22.20;;;;;;;2.74;58.67;101999.00;5270235;28;20517;-73
2022/03/04 07:39:18;;;;;;;30.27;21.47;;;;;;;2.78;58.15;102001.56;5274358;28;20032;-71
2022/03/04 07:41:51;;;;;;;37.93;21.87;;;;;;;2.82;57.87;101994.63;5275219;28;20040;-73
2022/03/04 07:44:22;;;;;;;37.20;21.83;;;;;;;2.89;57.56;101996.28;5276051;28;20012;-80
2022/03/04 07:46:53;;;;;;;32.30;21.63;;;;;;;2.97;57.50;102001.38;5271373;28;20824;-81
2022/03/04 07:49:24;;;;;;;36.83;21.97;;;;;;;3.24;57.34;102008.91;5287544;28;20034;-79
2022/03/04 07:51:56;;;;;;;34.27;21.20;;;;;;;3.52;56.30;101993.06;5274614;28;20030;-79
2022/03/04 07:54:27;;;;;;;38.63;21.70;;;;;;;3.92;54.63;101994.31;5267054;28;20040;-74
2022/03/04 07:56:58;;;;;;;33.20;19.80;;;;;;;4.50;53.71;101990.91;5284279;28;20023;-81
2022/03/04 07:59:30;;;;;;;32.00;20.93;;;;;;;4.80;51.88;101985.25;5276664;28;20463;-80
2022/03/04 08:02:01;;;;;;;29.17;19.70;;;;;;;5.22;50.74;102002.66;5268622;28;20032;-81
2022/03/04 08:04:33;;;;;;;31.57;21.63;;;;;;;5.32;50.41;102006.78;5276417;28;20056;-79
2022/03/04 08:07:04;;;;;;;27.97;19.87;;;;;;;5.54;50.04;102001.19;5280932;28;20715;-79
2022/03/04 08:09:35;;;;;;;34.57;19.50;;;;;;;5.91;48.41;102011.72;5288350;28;20055;-80
2022/03/04 08:12:07;;;;;;;28.17;18.30;;;;;;;6.03;48.45;101995.88;5273163;28;20020;-79
2022/03/04 08:14:39;;;;;;;25.40;18.77;;;;;;;6.27;48.29;101992.75;5270832;28;20029;-80
2022/03/04 08:17:10;;;;;;;29.40;20.07;;;;;;;6.59;47.65;102003.31;5274255;28;20540;-80
2022/03/04 08:19:42;;;;;;;28.27;19.73;;;;;;;6.74;46.32;102008.13;5288764;28;20027;-80
2022/03/04 08:22:13;;;;;;;31.20;20.17;;;;;;;6.92;46.00;102005.97;5271533;28;20031;-80
2022/03/04 08:24:44;;;;;;;27.23;18.33;;;;;;;7.39;45.02;101996.91;5271458;28;20059;-80
2022/03/04 08:27:15;;;;;;;24.67;18.73;;;;;;;8.24;43.41;102003.13;5285687;28;20506;-80
2022/03/04 08:29:47;;;;;;;25.90;18.27;;;;;;;8.44;42.09;102009.50;5276078;28;20024;-79
2022/03/04 08:32:22;;;;;;;25.17;17.83;;;;;;;9.07;40.92;102003.13;5282406;28;20036;-80
2022/03/04 08:34:53;;;;;;;31.63;17.70;;;;;;;10.04;39.59;102005.69;5274211;28;20021;-80
2022/03/04 08:37:25;;;;;;;24.97;18.37;;;;;;;10.76;37.88;102002.88;5286855;28;20090;-81
2022/03/04 08:39:56;;;;;;;27.10;18.93;;;;;;;11.24;37.11;102007.81;5276094;28;20035;-81
2022/03/04 08:42:29;;;;;;;25.07;17.87;;;;;;;11.37;36.24;102018.63;5281860;28;20029;-80
2022/03/04 08:45:01;;;;;;;26.80;18.30;;;;;;;11.80;35.35;102012.34;5282040;28;20028;-80
2022/03/04 08:47:32;;;;;;;22.27;17.70;;;;;;;12.17;34.19;102014.19;5276056;28;20364;-81
2022/03/04 08:50:06;;;;;;;24.00;19.07;;;;;;;12.23;33.71;102008.66;5287422;28;20051;-80
2022/03/04 08:52:37;;;;;;;24.52;17.88;;;;;;;12.13;33.55;102016.09;5271599;28;20033;-80
2022/03/04 08:55:14;;;;;;;24.80;17.57;;;;;;;11.29;34.90;102027.75;5283791;28;20032;-80
2022/03/04 08:57:47;;;;;;;23.97;18.53;;;;;;;10.89;35.79;102024.16;5275715;28;20454;-76
2022/03/04 09:00:18;;;;;;;28.53;19.20;;;;;;;10.25;37.27;102025.84;5277222;28;20028;-78
2022/03/04 09:02:50;;;;;;;26.20;18.50;;;;;;;10.02;37.58;102025.81;5268681;28;20023;-77
2022/03/04 09:05:22;;;;;;;26.10;18.37;;;;;;;11.04;35.50;102013.06;5285738;28;20440;-80
2022/03/04 09:07:53;;;;;;;25.73;18.93;;;;;;;11.53;34.45;102028.44;5275444;28;20077;-79
2022/03/04 09:10:24;;;;;;;24.20;18.47;;;;;;;12.13;32.93;102029.22;5284918;28;20070;-78
2022/03/04 09:12:56;;;;;;;25.10;18.13;;;;;;;12.38;32.94;102022.81;5269688;28;20063;-78
2022/03/04 09:15:27;;;;;;;22.33;17.97;;;;;;;13.26;31.74;102019.31;5269493;28;20111;-74
2022/03/04 09:17:58;;;;;;;22.83;18.50;;;;;;;13.68;31.03;102026.81;5278806;28;20024;-75
2022/03/04 09:20:30;;;;;;;23.90;19.07;;;;;;;13.94;30.42;102016.63;5284191;28;20090;-79
2022/03/04 09:23:02;;;;;;;26.37;18.37;;;;;;;13.84;29.92;102000.47;5269654;28;20060;-78
2022/03/04 09:25:34;;;;;;;21.70;18.03;;;;;;;14.74;29.51;102012.16;5269357;28;20033;-78
2022/03/04 09:28:06;;;;;;;21.60;18.77;;;;;;;15.03;28.71;101998.19;5285399;28;20025;-79
2022/03/04 09:30:38;;;;;;;21.80;17.00;;;;;;;15.37;27.76;102006.69;5278538;28;20072;-79
2022/03/04 09:33:09;;;;;;;21.90;16.37;;;;;;;15.38;28.38;102005.72;5273691;28;20028;-80
2022/03/04 09:35:40;;;;;;;21.27;17.60;;;;;;;15.60;27.28;102002.59;5270914;28;20036;-79
2022/03/04 09:38:11;;;;;;;22.07;18.70;;;;;;;15.74;27.29;101992.97;5286893;28;20032;-77
2022/03/04 09:40:43;;;;;;;21.20;18.53;;;;;;;16.30;26.52;101993.84;5280136;28;20378;-79
2022/03/04 09:43:18;;;;;;;22.20;17.70;;;;;;;16.72;26.29;101996.34;5274023;28;20021;-79
2022/03/04 09:45:50;;;;;;;21.93;17.57;;;;;;;17.97;25.31;101994.78;5286249;28;20052;-80
2022/03/04 09:48:22;;;;;;;21.60;17.17;;;;;;;18.25;25.13;101982.19;5276536;28;20067;-80
2022/03/04 09:50:54;;;;;;;23.10;18.07;;;;;;;18.91;24.10;101979.91;5279598;28;20128;-80
2022/03/04 09:53:27;;;;;;;24.37;17.87;;;;;;;19.54;23.04;101987.41;5270043;28;20682;-80
2022/03/04 09:55:58;;;;;;;27.97;17.93;;;;;;;18.33;23.85;101990.41;5272494;28;20115;-75
2022/03/04 09:58:29;;;;;;;21.73;18.03;;;;;;;20.01;22.62;101991.63;5291453;28;20099;-80
2022/03/04 10:01:00;;;;;;;31.33;18.67;;;;;;;19.91;22.09;101990.69;5279248;28;20134;-80
2022/03/04 10:03:31;;;;;;;21.33;18.50;;;;;;;18.91;22.67;101993.19;5270497;28;20108;-80
2022/03/04 10:06:04;;;;;;;22.57;18.60;;;;;;;19.23;22.84;101988.03;5278703;28;20040;-80
2022/03/04 10:08:37;;;;;;;25.03;18.07;;;;;;;18.51;24.15;101992.63;5288252;28;20032;-80
2022/03/04 10:11:10;;;;;;;21.93;17.80;;;;;;;19.02;23.38;101982.59;5276450;28;20078;-80
2022/03/04 10:13:46;;;;;;;21.17;17.17;;;;;;;19.22;23.13;101996.13;5272486;28;20029;-80
2022/03/04 10:16:22;;;;;;;25.73;17.87;;;;;;;20.35;22.33;101982.66;5280744;28;20071;-80
2022/03/04 10:19:10;;;;;;;20.60;18.40;;;;;;;19.36;23.08;101999.50;5283796;28;20769;-80
2022/03/04 10:21:51;;;;;;;23.50;17.57;;;;;;;18.69;23.53;102000.16;5275334;28;20481;-83
2022/03/04 10:24:36;;;;;;;32.67;19.10;;;;;;;17.69;24.38;102002.09;5265261;28;20487;-81
2022/03/04 10:27:16;;;;;;;20.67;17.17;;;;;;;18.36;24.10;102005.25;5280180;28;20025;-80
2022/03/04 10:29:49;;;;;;;28.53;17.63;;;;;;;18.57;24.20;102001.94;5283885;28;20554;-81
2022/03/04 10:32:24;;;;;;;25.17;17.88;;;;;;;18.16;24.09;102010.22;5284399;28;20433;-80
2022/03/04 10:35:01;;;;;;;19.73;17.63;;;;;;;17.47;24.93;102008.94;5272066;28;20020;-80
2022/03/04 10:37:56;;;;;;;20.23;17.67;;;;;;;18.26;24.98;101999.78;5287891;28;20032;-81
2022/03/04 10:40:30;;;;;;;23.37;18.20;;;;;;;15.76;27.08;102009.53;5272532;28;20645;-80
2022/03/04 10:43:06;;;;;;;;;;;;;;;17.52;26.22;102002.34;5268297;28;20025;-80
2022/03/04 10:45:42;;;;;;;22.00;16.40;;;;;;;15.73;26.96;102002.66;5273292;28;19923;-79
2022/03/04 10:48:15;;;;;;;27.60;19.03;;;;;;;14.79;28.31;101996.03;5277050;28;20479;-80
2022/03/04 10:50:49;;;;;;;24.43;18.20;;;;;;;14.67;28.46;102001.13;5274987;28;20136;-82
2022/03/04 10:53:26;;;;;;;21.25;18.80;;;;;;;16.11;27.51;101994.22;5273307;28;20317;-73
2022/03/04 10:56:04;;;;;;;22.50;17.63;;;;;;;15.47;28.19;101999.88;5276676;28;20043;-79
2022/03/04 10:58:37;;;;;;;22.83;18.67;;;;;;;14.34;28.75;101992.44;5269451;28;20585;-81
2022/03/04 11:01:12;;;;;;;22.10;18.33;;;;;;;14.44;29.30;101992.75;5287522;28;20066;-80
2022/03/04 11:03:44;;;;;;;24.50;17.77;;;;;;;14.43;29.29;101985.81;5280370;28;20024;-78
2022/03/04 11:06:16;;;;;;;21.37;17.07;;;;;;;13.97;29.97;101995.38;5282300;28;20040;-80
2022/03/04 11:08:47;;;;;;;21.90;18.10;;;;;;;13.93;29.77;101985.94;5282350;28;20483;-75
2022/03/04 11:11:19;;;;;;;23.10;18.37;;;;;;;13.85;29.89;102001.34;5281879;28;20031;-76
2022/03/04 11:13:50;;;;;;;24.00;18.33;;;;;;;14.62;29.78;101976.81;5272084;28;20044;-78
2022/03/04 11:16:23;;;;;;;23.37;17.03;;;;;;;13.88;29.90;101995.88;5278710;28;20030;-77
2022/03/04 11:18:54;;;;;;;21.17;16.77;;;;;;;13.59;30.00;101980.78;5282180;28;20025;-78
2022/03/04 11:21:26;;;;;;;24.87;16.80;;;;;;;13.40;30.43;101965.09;5279741;28;20034;-77
2022/03/04 11:23:57;;;;;;;22.10;18.23;;;;;;;13.52;30.49;101974.16;5274682;28;20020;-74
2022/03/04 11:26:31;;;;;;;23.13;17.37;;;;;;;13.57;29.87;101964.22;5280107;28;20083;-76
2022/03/04 11:29:03;;;;;;;23.10;18.57;;;;;;;13.12;30.31;101958.69;5284255;28;20068;-75
2022/03/04 11:31:34;;;;;;;21.27;17.33;;;;;;;13.03;30.56;101978.44;5280978;28;20020;-78
2022/03/04 11:34:05;;;;;;;21.73;17.60;;;;;;;13.30;31.51;101970.84;5276952;28;20047;-82
2022/03/04 11:36:39;;;;;;;21.80;17.60;;;;;;;13.49;31.04;101972.47;5283135;28;20032;-83